Airfield :
LOGIN :

Register | Disclaimer

   EN    FR    IT 

 










Legend :    VFR   Marginal VFR   IFR   Intensive IFR   Very Intensive IFR
Visi :
Ceiling :
>= 8 km
>= 3000ft
5 to 8 km
1000 to 3000 ft
1500m to 5 km
500 to 1000 ft
800 to 1500m
200 to 500 ft
< 800m
< 200 ft
Symbols :   Thunderstorms  Fog  Heavy snow  Heavy precipitations  Wind > 20 kt
SIGMETs :     Misc.  Thunderstorms  Icing  Turbulence  Mountain Waves  Volcanic Ashes







- Airport Elevation : 584 ft
- Download approach charts


LFPV - Villacoublay Vélizy

CURRENT METAR :
  • 241730Z AUTO 01009KT 340V070 9999 SCT044 22/12 Q1024 NOSIG

EXPIRED METARs :
  • 241700Z AUTO 04009KT 010V070 9999 BKN043 23/12 Q1024 NOSIG
  • 241630Z AUTO 36008KT 330V040 9999 BKN044 23/13 Q1024 NOSIG
  • 241600Z AUTO 36007KT 310V050 9999 SCT043 22/13 Q1024 NOSIG
  • 241530Z AUTO 35007KT 300V050 9999 FEW043 24/13 Q1024 NOSIG
  • 241500Z AUTO 02005KT 290V090 9999 FEW041 23/13 Q1024 NOSIG

TAF TAF LFPV
Valid from the 24 at 15:00 until the 25 at 15:00 UTC


241400Z 2415/2515 03007KT CAVOK
No reported NOTAMs for that airfield.



MET'MAP, your aeronautical weather chart ! - Copyright ORBIFLY December 2007 - Disclaimer

ORBIFLY MET'MAP TEAM :

Programming & Development : Alexandra Zaïnal
Concept & Development : Baudouin d'Aumeries
Co-Development & Prog : Marc-Olivier Méhu
Technical & hardware support : Manuel Goepfert

Contact : metmap@orbifly.com




SOURCES & CREDITS :

   NOAA